RUK100P EGKK-EGPH
Flight info
| Callsign | RUK100P |
|---|---|
| Flight time | 1h 4m |
| Altitude | 40000 |
| Route | LAM L10 BPK UN601 RIBEL DCT INPIP |
| Aircraft | B738/M-SDE2E3FGHIRWXY/LB1 |
Departure
| Time | 2026-05-06 19:48 |
|---|---|
| Airport | London Gatwick Airport (EGKK) |
Arrival
| Time | 2026-05-06 20:52 |
|---|---|
| Airport | Edinburgh Airport (EGPH) |
| Time | Latitude | Longitude | Altitude | Speed | Heading |
|---|---|---|---|---|---|
| 2026-05-06 19:20 | 51.15362 | -0.16345 | 201 ft | 0 kts | 346° |
| 2026-05-06 19:32 | 51.15355 | -0.16341 | 201 ft | 1 kts | 345° |
| 2026-05-06 19:33 | 51.15345 | -0.16337 | 201 ft | 2 kts | 336° |
| 2026-05-06 19:33 | 51.15333 | -0.16323 | 202 ft | 2 kts | 308° |
| 2026-05-06 19:33 | 51.15326 | -0.16302 | 202 ft | 2 kts | 284° |
| 2026-05-06 19:33 | 51.15324 | -0.16280 | 202 ft | 0 kts | 263° |
| 2026-05-06 19:34 | 51.15326 | -0.16270 | 203 ft | 1 kts | 258° |
| 2026-05-06 19:34 | 51.15326 | -0.16268 | 203 ft | 0 kts | 258° |
| 2026-05-06 19:35 | 51.15321 | -0.16310 | 202 ft | 9 kts | 259° |
| 2026-05-06 19:36 | 51.15307 | -0.16430 | 199 ft | 12 kts | 259° |
| 2026-05-06 19:36 | 51.15288 | -0.16598 | 194 ft | 19 kts | 260° |
| 2026-05-06 19:36 | 51.15323 | -0.16807 | 186 ft | 17 kts | 345° |
| 2026-05-06 19:36 | 51.15360 | -0.16926 | 183 ft | 16 kts | 258° |
| 2026-05-06 19:37 | 51.15334 | -0.17115 | 181 ft | 18 kts | 258° |
| 2026-05-06 19:37 | 51.15310 | -0.17289 | 184 ft | 0 kts | 255° |
| 2026-05-06 19:37 | 51.15310 | -0.17291 | 184 ft | 0 kts | 256° |
| 2026-05-06 19:37 | 51.15309 | -0.17297 | 184 ft | 2 kts | 256° |
| 2026-05-06 19:38 | 51.15302 | -0.17402 | 187 ft | 9 kts | 264° |
| 2026-05-06 19:38 | 51.15286 | -0.17533 | 191 ft | 11 kts | 258° |
| 2026-05-06 19:38 | 51.15268 | -0.17664 | 191 ft | 12 kts | 258° |
| 2026-05-06 19:38 | 51.15248 | -0.17800 | 192 ft | 12 kts | 257° |
| 2026-05-06 19:39 | 51.15229 | -0.17932 | 193 ft | 12 kts | 258° |
| 2026-05-06 19:39 | 51.15209 | -0.18083 | 193 ft | 17 kts | 258° |
| 2026-05-06 19:39 | 51.15184 | -0.18274 | 193 ft | 17 kts | 258° |
| 2026-05-06 19:39 | 51.15163 | -0.18461 | 195 ft | 17 kts | 261° |
| 2026-05-06 19:40 | 51.15139 | -0.18651 | 195 ft | 17 kts | 257° |
| 2026-05-06 19:40 | 51.15111 | -0.18856 | 195 ft | 21 kts | 258° |
| 2026-05-06 19:40 | 51.15071 | -0.19142 | 193 ft | 28 kts | 258° |
| 2026-05-06 19:40 | 51.15031 | -0.19439 | 191 ft | 23 kts | 258° |
| 2026-05-06 19:41 | 51.14996 | -0.19693 | 192 ft | 23 kts | 258° |
| 2026-05-06 19:41 | 51.14962 | -0.19942 | 194 ft | 23 kts | 258° |
| 2026-05-06 19:41 | 51.14928 | -0.20190 | 195 ft | 22 kts | 257° |
| 2026-05-06 19:41 | 51.14895 | -0.20421 | 196 ft | 13 kts | 257° |
| 2026-05-06 19:42 | 51.14876 | -0.20574 | 195 ft | 15 kts | 258° |
| 2026-05-06 19:42 | 51.14852 | -0.20738 | 195 ft | 15 kts | 257° |
| 2026-05-06 19:42 | 51.14828 | -0.20907 | 196 ft | 15 kts | 258° |
| 2026-05-06 19:42 | 51.14806 | -0.21067 | 197 ft | 14 kts | 257° |
| 2026-05-06 19:43 | 51.14776 | -0.21226 | 198 ft | 15 kts | 254° |
| 2026-05-06 19:43 | 51.14753 | -0.21372 | 201 ft | 6 kts | 243° |
| 2026-05-06 19:43 | 51.14724 | -0.21407 | 201 ft | 0 kts | 174° |
| 2026-05-06 19:44 | 51.14723 | -0.21407 | 201 ft | 1 kts | 174° |
| 2026-05-06 19:44 | 51.14705 | -0.21402 | 201 ft | 3 kts | 169° |
| 2026-05-06 19:44 | 51.14669 | -0.21374 | 201 ft | 8 kts | 137° |
| 2026-05-06 19:45 | 51.14619 | -0.21326 | 201 ft | 7 kts | 166° |
| 2026-05-06 19:45 | 51.14617 | -0.21326 | 201 ft | 0 kts | 168° |
| 2026-05-06 19:45 | 51.14613 | -0.21324 | 201 ft | 3 kts | 168° |
| 2026-05-06 19:45 | 51.14563 | -0.21297 | 201 ft | 9 kts | 146° |
| 2026-05-06 19:46 | 51.14520 | -0.21208 | 199 ft | 11 kts | 105° |
| 2026-05-06 19:46 | 51.14522 | -0.21156 | 198 ft | 0 kts | 78° |
| 2026-05-06 19:47 | 51.14525 | -0.21137 | 198 ft | 16 kts | 78° |
| 2026-05-06 19:47 | 51.14638 | -0.20316 | 196 ft | 131 kts | 77° |
| 2026-05-06 19:48 | 51.14856 | -0.18725 | 1034 ft | 161 kts | 76° |
| 2026-05-06 19:48 | 51.15082 | -0.17073 | 2410 ft | 163 kts | 77° |
| 2026-05-06 19:48 | 51.15295 | -0.15257 | 3514 ft | 181 kts | 77° |
| 2026-05-06 19:48 | 51.15538 | -0.13254 | 4676 ft | 195 kts | 77° |
| 2026-05-06 19:49 | 51.15832 | -0.11000 | 5244 ft | 234 kts | 76° |
| 2026-05-06 19:49 | 51.16243 | -0.08351 | 5973 ft | 259 kts | 72° |
| 2026-05-06 19:49 | 51.17017 | -0.05710 | 6976 ft | 273 kts | 55° |
| 2026-05-06 19:49 | 51.18133 | -0.03330 | 8083 ft | 261 kts | 50° |
| 2026-05-06 19:50 | 51.19223 | -0.01175 | 8273 ft | 251 kts | 50° |
| 2026-05-06 19:50 | 51.20396 | 0.01165 | 8709 ft | 287 kts | 51° |
| 2026-05-06 19:50 | 51.21618 | 0.03639 | 10161 ft | 290 kts | 48° |
| 2026-05-06 19:50 | 51.23169 | 0.05636 | 11334 ft | 298 kts | 24° |
| 2026-05-06 19:51 | 51.25217 | 0.06234 | 12338 ft | 311 kts | 355° |
| 2026-05-06 19:51 | 51.27316 | 0.05630 | 13542 ft | 317 kts | 345° |
| 2026-05-06 19:51 | 51.29448 | 0.04725 | 14725 ft | 323 kts | 344° |
| 2026-05-06 19:51 | 51.31620 | 0.03829 | 15881 ft | 328 kts | 345° |
| 2026-05-06 19:52 | 51.33840 | 0.02999 | 16985 ft | 334 kts | 346° |
| 2026-05-06 19:52 | 51.36129 | 0.02208 | 18032 ft | 340 kts | 347° |
| 2026-05-06 19:52 | 51.38428 | 0.01446 | 19010 ft | 346 kts | 347° |
| 2026-05-06 19:52 | 51.40813 | 0.00667 | 19993 ft | 352 kts | 347° |
| 2026-05-06 19:53 | 51.43211 | -0.00115 | 20910 ft | 357 kts | 347° |
| 2026-05-06 19:53 | 51.45629 | -0.00906 | 21797 ft | 363 kts | 347° |
| 2026-05-06 19:53 | 51.48126 | -0.01726 | 22644 ft | 368 kts | 347° |
| 2026-05-06 19:53 | 51.50626 | -0.02549 | 23456 ft | 374 kts | 347° |
| 2026-05-06 19:54 | 51.53202 | -0.03400 | 24280 ft | 378 kts | 347° |
| 2026-05-06 19:54 | 51.55754 | -0.04245 | 25096 ft | 382 kts | 346° |
| 2026-05-06 19:54 | 51.58381 | -0.05115 | 25897 ft | 386 kts | 346° |
| 2026-05-06 19:54 | 51.61004 | -0.05986 | 26633 ft | 390 kts | 346° |
| 2026-05-06 19:55 | 51.63651 | -0.06867 | 27343 ft | 394 kts | 346° |
| 2026-05-06 19:55 | 51.66341 | -0.07763 | 28022 ft | 399 kts | 346° |
| 2026-05-06 19:55 | 51.69069 | -0.08674 | 28675 ft | 403 kts | 346° |
| 2026-05-06 19:55 | 51.71816 | -0.09675 | 29300 ft | 407 kts | 343° |
| 2026-05-06 19:56 | 51.74528 | -0.11017 | 29939 ft | 409 kts | 338° |
| 2026-05-06 19:56 | 51.77133 | -0.12798 | 30526 ft | 412 kts | 333° |
| 2026-05-06 19:56 | 51.79692 | -0.14945 | 31123 ft | 415 kts | 329° |
| 2026-05-06 19:56 | 51.82177 | -0.17235 | 31670 ft | 418 kts | 328° |
| 2026-05-06 19:57 | 51.84666 | -0.19622 | 32223 ft | 421 kts | 327° |
| 2026-05-06 19:57 | 51.87177 | -0.22066 | 33016 ft | 417 kts | 327° |
| 2026-05-06 19:57 | 51.89654 | -0.24480 | 33782 ft | 414 kts | 327° |
| 2026-05-06 19:57 | 51.92124 | -0.26882 | 34421 ft | 413 kts | 327° |
| 2026-05-06 19:58 | 51.94599 | -0.29276 | 35004 ft | 412 kts | 327° |
| 2026-05-06 19:58 | 51.97052 | -0.31646 | 35467 ft | 411 kts | 327° |
| 2026-05-06 19:58 | 51.99536 | -0.34045 | 35883 ft | 411 kts | 328° |
| 2026-05-06 19:58 | 52.02000 | -0.36422 | 36290 ft | 411 kts | 328° |
| 2026-05-06 19:59 | 52.04471 | -0.38806 | 36705 ft | 410 kts | 328° |
| 2026-05-06 19:59 | 52.06941 | -0.41189 | 37052 ft | 411 kts | 328° |
| 2026-05-06 19:59 | 52.09405 | -0.43572 | 37369 ft | 413 kts | 328° |
| 2026-05-06 19:59 | 52.11874 | -0.45960 | 37694 ft | 413 kts | 328° |
| 2026-05-06 20:00 | 52.14343 | -0.48352 | 38010 ft | 413 kts | 328° |
| 2026-05-06 20:00 | 52.16846 | -0.50780 | 38305 ft | 414 kts | 328° |
| 2026-05-06 20:00 | 52.19293 | -0.53155 | 38589 ft | 415 kts | 328° |
| 2026-05-06 20:00 | 52.21769 | -0.55555 | 38853 ft | 416 kts | 329° |
| 2026-05-06 20:01 | 52.24242 | -0.57957 | 39181 ft | 416 kts | 328° |
| 2026-05-06 20:01 | 52.26745 | -0.60395 | 39507 ft | 416 kts | 328° |
| 2026-05-06 20:01 | 52.29206 | -0.62798 | 39792 ft | 417 kts | 328° |
| 2026-05-06 20:01 | 52.31679 | -0.65215 | 39996 ft | 419 kts | 328° |
| 2026-05-06 20:02 | 52.36706 | -0.70133 | 40024 ft | 417 kts | 328° |
| 2026-05-06 20:02 | 52.41620 | -0.74952 | 40029 ft | 416 kts | 327° |
| 2026-05-06 20:03 | 52.46574 | -0.79833 | 40024 ft | 416 kts | 328° |
| 2026-05-06 20:03 | 52.51510 | -0.84704 | 40027 ft | 415 kts | 328° |
| 2026-05-06 20:04 | 52.56444 | -0.89581 | 40030 ft | 416 kts | 328° |
| 2026-05-06 20:04 | 52.61393 | -0.94488 | 40032 ft | 416 kts | 328° |
| 2026-05-06 20:05 | 52.66311 | -0.99382 | 40034 ft | 416 kts | 328° |
| 2026-05-06 20:05 | 52.71265 | -1.04322 | 40037 ft | 415 kts | 328° |
| 2026-05-06 20:06 | 52.76182 | -1.09240 | 40040 ft | 415 kts | 328° |
| 2026-05-06 20:06 | 52.81092 | -1.14161 | 40039 ft | 414 kts | 328° |
| 2026-05-06 20:07 | 52.85986 | -1.19085 | 40042 ft | 415 kts | 328° |
| 2026-05-06 20:07 | 52.90898 | -1.24042 | 40042 ft | 414 kts | 328° |
| 2026-05-06 20:08 | 52.95810 | -1.29005 | 40042 ft | 414 kts | 328° |
| 2026-05-06 20:08 | 53.00719 | -1.33976 | 40042 ft | 414 kts | 328° |
| 2026-05-06 20:09 | 53.05618 | -1.38950 | 40041 ft | 414 kts | 328° |
| 2026-05-06 20:09 | 53.10490 | -1.43913 | 40040 ft | 414 kts | 328° |
| 2026-05-06 20:10 | 53.15375 | -1.48905 | 40035 ft | 413 kts | 328° |
| 2026-05-06 20:10 | 53.20240 | -1.53886 | 40034 ft | 413 kts | 328° |
| 2026-05-06 20:11 | 53.25119 | -1.58894 | 40032 ft | 412 kts | 328° |
| 2026-05-06 20:11 | 53.29979 | -1.63897 | 40029 ft | 411 kts | 328° |
| 2026-05-06 20:12 | 53.34858 | -1.68919 | 40025 ft | 412 kts | 327° |
| 2026-05-06 20:12 | 53.39700 | -1.73917 | 40019 ft | 411 kts | 327° |
| 2026-05-06 20:13 | 53.44551 | -1.78948 | 40015 ft | 411 kts | 327° |
| 2026-05-06 20:13 | 53.49380 | -1.83977 | 40013 ft | 410 kts | 327° |
| 2026-05-06 20:14 | 53.54233 | -1.89053 | 40015 ft | 411 kts | 327° |
| 2026-05-06 20:14 | 53.59053 | -1.94101 | 40021 ft | 411 kts | 327° |
| 2026-05-06 20:15 | 53.63868 | -1.99163 | 40024 ft | 410 kts | 327° |
| 2026-05-06 20:15 | 53.68675 | -2.04234 | 40026 ft | 409 kts | 327° |
| 2026-05-06 20:16 | 53.73528 | -2.09264 | 40026 ft | 410 kts | 329° |
| 2026-05-06 20:16 | 53.78654 | -2.13379 | 40029 ft | 410 kts | 335° |
| 2026-05-06 20:17 | 53.83957 | -2.16984 | 40022 ft | 411 kts | 337° |
| 2026-05-06 20:17 | 53.89287 | -2.20540 | 40030 ft | 411 kts | 337° |
| 2026-05-06 20:18 | 53.94579 | -2.24110 | 40026 ft | 409 kts | 337° |
| 2026-05-06 20:18 | 53.99842 | -2.27698 | 40033 ft | 411 kts | 336° |
| 2026-05-06 20:19 | 54.05111 | -2.31318 | 40022 ft | 409 kts | 336° |
| 2026-05-06 20:19 | 54.10375 | -2.34959 | 40014 ft | 409 kts | 336° |
| 2026-05-06 20:20 | 54.15619 | -2.38591 | 40013 ft | 409 kts | 336° |
| 2026-05-06 20:20 | 54.20857 | -2.42227 | 39943 ft | 407 kts | 336° |
| 2026-05-06 20:21 | 54.23494 | -2.44063 | 39340 ft | 411 kts | 336° |
| 2026-05-06 20:21 | 54.26172 | -2.45935 | 38453 ft | 420 kts | 336° |
| 2026-05-06 20:21 | 54.28838 | -2.47802 | 37923 ft | 418 kts | 337° |
| 2026-05-06 20:21 | 54.31520 | -2.49681 | 37410 ft | 415 kts | 337° |
| 2026-05-06 20:22 | 54.34187 | -2.51550 | 36855 ft | 414 kts | 338° |
| 2026-05-06 20:22 | 54.36822 | -2.53398 | 36313 ft | 413 kts | 338° |
| 2026-05-06 20:22 | 54.39492 | -2.55274 | 35879 ft | 413 kts | 338° |
| 2026-05-06 20:22 | 54.42084 | -2.57098 | 35696 ft | 402 kts | 339° |
| 2026-05-06 20:23 | 54.44647 | -2.58905 | 35559 ft | 389 kts | 339° |
| 2026-05-06 20:23 | 54.47134 | -2.60660 | 35226 ft | 384 kts | 339° |
| 2026-05-06 20:23 | 54.49582 | -2.62390 | 34561 ft | 385 kts | 339° |
| 2026-05-06 20:23 | 54.52057 | -2.64138 | 34010 ft | 380 kts | 339° |
| 2026-05-06 20:24 | 54.54484 | -2.65853 | 33435 ft | 377 kts | 338° |
| 2026-05-06 20:24 | 54.56903 | -2.67567 | 32848 ft | 374 kts | 337° |
| 2026-05-06 20:24 | 54.59322 | -2.69284 | 32248 ft | 371 kts | 337° |
| 2026-05-06 20:24 | 54.61669 | -2.70953 | 31647 ft | 369 kts | 337° |
| 2026-05-06 20:25 | 54.64040 | -2.72643 | 31049 ft | 367 kts | 337° |
| 2026-05-06 20:25 | 54.66371 | -2.74303 | 30419 ft | 365 kts | 336° |
| 2026-05-06 20:25 | 54.68710 | -2.75967 | 29914 ft | 360 kts | 336° |
| 2026-05-06 20:25 | 54.70990 | -2.77596 | 29321 ft | 358 kts | 336° |
| 2026-05-06 20:26 | 54.73262 | -2.79226 | 28800 ft | 354 kts | 336° |
| 2026-05-06 20:26 | 54.75523 | -2.80845 | 28358 ft | 348 kts | 336° |
| 2026-05-06 20:26 | 54.77747 | -2.82440 | 27920 ft | 342 kts | 336° |
| 2026-05-06 20:26 | 54.79901 | -2.83988 | 27491 ft | 339 kts | 336° |
| 2026-05-06 20:27 | 54.82092 | -2.85566 | 27062 ft | 344 kts | 336° |
| 2026-05-06 20:27 | 54.84316 | -2.87169 | 26623 ft | 345 kts | 335° |
| 2026-05-06 20:27 | 54.86479 | -2.88727 | 26194 ft | 339 kts | 335° |
| 2026-05-06 20:27 | 54.88628 | -2.90274 | 25895 ft | 332 kts | 335° |
| 2026-05-06 20:28 | 54.90772 | -2.91819 | 25137 ft | 336 kts | 335° |
| 2026-05-06 20:28 | 54.92898 | -2.93357 | 24571 ft | 334 kts | 335° |
| 2026-05-06 20:28 | 54.95026 | -2.94897 | 24022 ft | 332 kts | 335° |
| 2026-05-06 20:28 | 54.97152 | -2.96438 | 23506 ft | 329 kts | 335° |
| 2026-05-06 20:29 | 54.99236 | -2.97949 | 23084 ft | 323 kts | 335° |
| 2026-05-06 20:29 | 55.01290 | -2.99439 | 22674 ft | 318 kts | 335° |
| 2026-05-06 20:29 | 55.03309 | -3.00909 | 22274 ft | 322 kts | 335° |
| 2026-05-06 20:29 | 55.05386 | -3.02424 | 21864 ft | 326 kts | 335° |
| 2026-05-06 20:30 | 55.07470 | -3.03945 | 21440 ft | 321 kts | 335° |
| 2026-05-06 20:30 | 55.11517 | -3.06896 | 20640 ft | 312 kts | 334° |
| 2026-05-06 20:30 | 55.13531 | -3.08370 | 20238 ft | 318 kts | 334° |
| 2026-05-06 20:31 | 55.15553 | -3.09852 | 19971 ft | 315 kts | 334° |
| 2026-05-06 20:31 | 55.17555 | -3.11317 | 19412 ft | 316 kts | 334° |
| 2026-05-06 20:31 | 55.19577 | -3.12800 | 18816 ft | 317 kts | 334° |
| 2026-05-06 20:31 | 55.21603 | -3.14287 | 18307 ft | 316 kts | 334° |
| 2026-05-06 20:32 | 55.23629 | -3.15778 | 17828 ft | 313 kts | 334° |
| 2026-05-06 20:32 | 55.25617 | -3.17243 | 17351 ft | 311 kts | 334° |
| 2026-05-06 20:32 | 55.27594 | -3.18702 | 16872 ft | 309 kts | 334° |
| 2026-05-06 20:32 | 55.29539 | -3.20229 | 16400 ft | 306 kts | 331° |
| 2026-05-06 20:33 | 55.31378 | -3.22036 | 15908 ft | 303 kts | 326° |
| 2026-05-06 20:33 | 55.33136 | -3.24024 | 15439 ft | 300 kts | 324° |
| 2026-05-06 20:33 | 55.34835 | -3.26031 | 14957 ft | 299 kts | 324° |
| 2026-05-06 20:33 | 55.36560 | -3.28074 | 14507 ft | 296 kts | 324° |
| 2026-05-06 20:34 | 55.38253 | -3.30066 | 14035 ft | 294 kts | 324° |
| 2026-05-06 20:34 | 55.39943 | -3.32039 | 13544 ft | 293 kts | 324° |
| 2026-05-06 20:34 | 55.41634 | -3.34007 | 13051 ft | 292 kts | 324° |
| 2026-05-06 20:34 | 55.43327 | -3.35976 | 12576 ft | 291 kts | 324° |
| 2026-05-06 20:35 | 55.45003 | -3.37926 | 12106 ft | 289 kts | 324° |
| 2026-05-06 20:35 | 55.46666 | -3.39861 | 11644 ft | 287 kts | 324° |
| 2026-05-06 20:35 | 55.48326 | -3.41796 | 11163 ft | 286 kts | 324° |
| 2026-05-06 20:35 | 55.49952 | -3.43693 | 10930 ft | 276 kts | 324° |
| 2026-05-06 20:36 | 55.51538 | -3.45544 | 10495 ft | 273 kts | 324° |
| 2026-05-06 20:36 | 55.53107 | -3.47380 | 9881 ft | 272 kts | 324° |
| 2026-05-06 20:36 | 55.54690 | -3.49235 | 9276 ft | 271 kts | 324° |
| 2026-05-06 20:36 | 55.56247 | -3.51062 | 8686 ft | 269 kts | 324° |
| 2026-05-06 20:37 | 55.57792 | -3.52877 | 8122 ft | 267 kts | 325° |
| 2026-05-06 20:37 | 55.59308 | -3.54657 | 7746 ft | 258 kts | 325° |
| 2026-05-06 20:37 | 55.60785 | -3.56395 | 7431 ft | 258 kts | 325° |
| 2026-05-06 20:37 | 55.62305 | -3.58190 | 7109 ft | 267 kts | 325° |
| 2026-05-06 20:38 | 55.63833 | -3.59992 | 6757 ft | 264 kts | 325° |
| 2026-05-06 20:38 | 55.65344 | -3.61772 | 6411 ft | 261 kts | 325° |
| 2026-05-06 20:38 | 55.66828 | -3.63521 | 6185 ft | 252 kts | 325° |
| 2026-05-06 20:38 | 55.68249 | -3.65198 | 6110 ft | 241 kts | 324° |
| 2026-05-06 20:39 | 55.69643 | -3.66849 | 6044 ft | 244 kts | 324° |
| 2026-05-06 20:39 | 55.71027 | -3.68489 | 5968 ft | 234 kts | 324° |
| 2026-05-06 20:39 | 55.72347 | -3.70052 | 5877 ft | 224 kts | 324° |
| 2026-05-06 20:39 | 55.73652 | -3.71601 | 5593 ft | 224 kts | 324° |
| 2026-05-06 20:40 | 55.74942 | -3.73135 | 5345 ft | 222 kts | 324° |
| 2026-05-06 20:40 | 55.76203 | -3.74632 | 5128 ft | 219 kts | 324° |
| 2026-05-06 20:40 | 55.77480 | -3.76072 | 4939 ft | 214 kts | 331° |
| 2026-05-06 20:40 | 55.78896 | -3.76688 | 4804 ft | 208 kts | 359° |
| 2026-05-06 20:41 | 55.80305 | -3.76315 | 4660 ft | 202 kts | 15° |
| 2026-05-06 20:41 | 55.81600 | -3.75378 | 4486 ft | 204 kts | 32° |
| 2026-05-06 20:41 | 55.82652 | -3.73743 | 4305 ft | 203 kts | 53° |
| 2026-05-06 20:41 | 55.83413 | -3.71646 | 4133 ft | 201 kts | 61° |
| 2026-05-06 20:42 | 55.84122 | -3.69504 | 3971 ft | 201 kts | 58° |
| 2026-05-06 20:42 | 55.84898 | -3.67460 | 3920 ft | 201 kts | 62° |
| 2026-05-06 20:42 | 55.85520 | -3.65239 | 3719 ft | 201 kts | 64° |
| 2026-05-06 20:42 | 55.86197 | -3.63044 | 3384 ft | 204 kts | 61° |
| 2026-05-06 20:43 | 55.86916 | -3.60904 | 3101 ft | 200 kts | 60° |
| 2026-05-06 20:43 | 55.87632 | -3.58796 | 2799 ft | 197 kts | 61° |
| 2026-05-06 20:43 | 55.88325 | -3.56767 | 2519 ft | 192 kts | 61° |
| 2026-05-06 20:43 | 55.89004 | -3.54785 | 2256 ft | 180 kts | 61° |
| 2026-05-06 20:44 | 55.89629 | -3.52964 | 2013 ft | 165 kts | 62° |
| 2026-05-06 20:44 | 55.90201 | -3.51290 | 1790 ft | 154 kts | 62° |
| 2026-05-06 20:44 | 55.90739 | -3.49714 | 1583 ft | 146 kts | 62° |
| 2026-05-06 20:44 | 55.91265 | -3.48174 | 1382 ft | 145 kts | 62° |
| 2026-05-06 20:45 | 55.91787 | -3.46639 | 1182 ft | 145 kts | 62° |
| 2026-05-06 20:45 | 55.92304 | -3.45123 | 984 ft | 142 kts | 62° |
| 2026-05-06 20:45 | 55.92818 | -3.43615 | 793 ft | 142 kts | 62° |
| 2026-05-06 20:45 | 55.93331 | -3.42116 | 596 ft | 140 kts | 62° |
| 2026-05-06 20:46 | 55.93843 | -3.40621 | 391 ft | 140 kts | 62° |
| 2026-05-06 20:46 | 55.94351 | -3.39146 | 207 ft | 137 kts | 62° |
| 2026-05-06 20:46 | 55.94848 | -3.37685 | 112 ft | 136 kts | 63° |
| 2026-05-06 20:46 | 55.95354 | -3.36224 | 360 ft | 148 kts | 61° |
| 2026-05-06 20:47 | 55.95966 | -3.34570 | 1094 ft | 183 kts | 60° |
| 2026-05-06 20:47 | 55.96762 | -3.32514 | 1448 ft | 197 kts | 54° |
| 2026-05-06 20:47 | 55.97849 | -3.31356 | 1546 ft | 185 kts | 11° |
| 2026-05-06 20:47 | 55.99046 | -3.32007 | 1364 ft | 191 kts | 316° |
| 2026-05-06 20:48 | 55.99494 | -3.34212 | 995 ft | 196 kts | 263° |
| 2026-05-06 20:48 | 55.99180 | -3.36549 | 1373 ft | 195 kts | 250° |
| 2026-05-06 20:48 | 55.98627 | -3.38802 | 1539 ft | 195 kts | 240° |
| 2026-05-06 20:48 | 55.98000 | -3.40892 | 1524 ft | 189 kts | 237° |
| 2026-05-06 20:49 | 55.97320 | -3.42913 | 1470 ft | 187 kts | 235° |
| 2026-05-06 20:49 | 55.96621 | -3.44891 | 1482 ft | 192 kts | 234° |
| 2026-05-06 20:49 | 55.95908 | -3.46818 | 1466 ft | 177 kts | 230° |
| 2026-05-06 20:49 | 55.94977 | -3.47811 | 1349 ft | 148 kts | 185° |
| 2026-05-06 20:50 | 55.94050 | -3.47294 | 1079 ft | 142 kts | 144° |
| 2026-05-06 20:50 | 55.93254 | -3.46213 | 887 ft | 147 kts | 142° |
| 2026-05-06 20:50 | 55.92679 | -3.44833 | 894 ft | 136 kts | 105° |
| 2026-05-06 20:50 | 55.92870 | -3.43179 | 709 ft | 146 kts | 60° |
| 2026-05-06 20:51 | 55.93442 | -3.41738 | 500 ft | 138 kts | 61° |
| 2026-05-06 20:51 | 55.93946 | -3.40302 | 342 ft | 138 kts | 62° |
| 2026-05-06 20:51 | 55.94474 | -3.38779 | 165 ft | 144 kts | 63° |
| 2026-05-06 20:51 | 55.94958 | -3.37345 | 99 ft | 111 kts | 62° |
| 2026-05-06 20:52 | 55.95212 | -3.36611 | 101 ft | 19 kts | 58° |
| 2026-05-06 20:52 | 55.95249 | -3.36496 | 102 ft | 11 kts | 64° |
| 2026-05-06 20:52 | 55.95229 | -3.36397 | 102 ft | 9 kts | 144° |
| 2026-05-06 20:52 | 55.95174 | -3.36332 | 102 ft | 9 kts | 151° |
| 2026-05-06 20:53 | 55.95114 | -3.36346 | 102 ft | 8 kts | 225° |
| 2026-05-06 20:53 | 55.95083 | -3.36436 | 102 ft | 8 kts | 239° |
| 2026-05-06 20:53 | 55.95050 | -3.36536 | 102 ft | 10 kts | 238° |
| 2026-05-06 20:53 | 55.94996 | -3.36686 | 102 ft | 15 kts | 237° |
| 2026-05-06 20:54 | 55.94937 | -3.36821 | 100 ft | 12 kts | 197° |
| 2026-05-06 20:54 | 55.94854 | -3.36778 | 102 ft | 12 kts | 167° |
| 2026-05-06 20:54 | 55.94775 | -3.36766 | 103 ft | 11 kts | 153° |
| 2026-05-06 20:54 | 55.94704 | -3.36737 | 105 ft | 10 kts | 178° |
| 2026-05-06 20:55 | 55.94632 | -3.36735 | 106 ft | 10 kts | 179° |
| 2026-05-06 20:55 | 55.94617 | -3.36730 | 106 ft | 2 kts | 148° |
| 2026-05-06 20:55 | 55.94613 | -3.36704 | 106 ft | 3 kts | 90° |
| 2026-05-06 20:55 | 55.94613 | -3.36647 | 107 ft | 4 kts | 90° |
| 2026-05-06 20:56 | 55.94613 | -3.36629 | 107 ft | 0 kts | 89° |